Flight Track Log - Related Links

Times and Time Zones

All times are in EST time to prevent confusion due to time zone crossing. See the SWA1533 flight status page for this flight to view local times or setup timezone preferences in your user account.


Time Position Orientation Groundspeed Altitude Reporting Facility
EST Latitude Longitude Course Direction KTS MPH feet Rate Location/Type
Thu 01:37:14 PM 27.9667 -82.5500 180° South 166 191 500  Level Tampa TRACON
Thu 01:37:57 PM 27.9333 -82.5500 180° South 194 223 2,500 3,835 Climbing Tampa TRACON
Thu 01:38:51 PM 27.9000 -82.5833 221° Southwest 215 247 6,700 3,850 Climbing Tampa TRACON
Thu 01:39:57 PM 27.9500 -82.6167 330° Northwest 309 356 10,200 2,878 Climbing Tampa TRACON
Thu 01:42:07 PM 28.1706 -82.5958 North 363 418 16,100 3,016 Climbing Jacksonville Center
Thu 01:43:06 PM 28.2811 -82.5886 North 380 437 19,700 2,471 Climbing Jacksonville Center
Thu 01:44:06 PM 28.3958 -82.5833 North 399 459 21,000 744 Climbing Jacksonville Center
Thu 01:45:07 PM 28.5086 -82.5856 359° North 404 465 21,200 1,450 Climbing Jacksonville Center
Thu 01:46:06 PM 28.6253 -82.5897 358° North 404 465 23,900 1,412 Climbing Jacksonville Center
Thu 01:47:06 PM 28.7319 -82.5967 357° North 409 471 24,000 1,050 Climbing Jacksonville Center
Thu 01:48:06 PM 28.8486 -82.6128 353° North 416 479 26,000 1,650 Climbing Jacksonville Center
Thu 01:49:06 PM 28.9697 -82.6292 353° North 428 493 27,300 1,700 Climbing Jacksonville Center
Thu 01:50:06 PM 29.0931 -82.6478 352° North 435 501 29,400 2,200 Climbing Jacksonville Center
Thu 01:51:06 PM 29.2372 -82.6664 354° North 458 527 31,700 2,300 Climbing Jacksonville Center
Thu 01:52:06 PM 29.3667 -82.6853 353° North 466 536 34,000 1,150 Climbing Jacksonville Center
Thu 01:53:06 PM 29.4961 -82.6922 357° North 466 536 34,000 600 Level Jacksonville Center
Thu 01:54:06 PM 29.6169 -82.6967 358° North 472 543 35,200 1,800 Climbing Jacksonville Center
Thu 01:55:06 PM 29.7464 -82.6844 North 466 536 37,600 1,400 Climbing Jacksonville Center
Thu 01:56:06 PM 29.8717 -82.6722 North 461 531 38,000 550 Climbing Jacksonville Center
Thu 01:57:06 PM 30.0011 -82.6600 North 461 531 38,700 1,150 Climbing Jacksonville Center
Thu 01:58:06 PM 30.1139 -82.6453 North 461 531 40,300 1,150 Climbing Jacksonville Center
Thu 01:59:06 PM 30.2475 -82.6328 North 444 511 41,000 350 Climbing Jacksonville Center
Thu 02:00:06 PM 30.3747 -82.6228 North 445 512 41,000  Level Jacksonville Center
Thu 02:01:06 PM 30.5000 -82.6106 North 445 512 41,000  Level Jacksonville Center
Thu 02:02:06 PM 30.6211 -82.6006 North 439 505 41,000  Level Jacksonville Center
Thu 02:03:06 PM 30.7442 -82.5881 North 439 505 41,000  Level Jacksonville Center
Thu 02:04:06 PM 30.8717 -82.5756 North 439 505 41,000  Level Jacksonville Center
Thu 02:05:06 PM 30.9947 -82.5631 North 439 505 41,000  Level Jacksonville Center
Thu 02:06:06 PM 31.1181 -82.5528 North 444 511 41,000  Level Jacksonville Center
Thu 02:07:06 PM 31.2433 -82.5403 North 444 511 41,000  Level Jacksonville Center
Thu 02:08:06 PM 31.3683 -82.5228 North 444 511 41,000  Level Jacksonville Center
Thu 02:09:06 PM 31.4936 -82.5100 North 444 511 41,000  Level Jacksonville Center
Thu 02:10:06 PM 31.6167 -82.4925 North 444 511 41,000  Level Jacksonville Center
Thu 02:11:51 PM 31.8450 -82.4619 North 461 531 41,000  Level Atlanta Center
Thu 02:12:51 PM 31.9681 -82.4425 North 455 524 41,000  Level Atlanta Center
Thu 02:13:51 PM 32.0908 -82.4233 North 449 517 41,000  Level Atlanta Center
Thu 02:14:51 PM 32.2136 -82.4014 North 443 510 41,000  Level Atlanta Center
Thu 02:15:51 PM 32.3200 -82.3847 North 443 510 41,000  Level Atlanta Center
Thu 02:16:51 PM 32.4428 -82.3653 North 443 510 41,000  Level Atlanta Center
Thu 02:17:51 PM 32.5678 -82.3456 North 443 510 41,000  Level Atlanta Center
Thu 02:18:51 PM 32.6906 -82.3258 North 443 510 41,000  Level Atlanta Center
Thu 02:19:51 PM 32.8136 -82.3061 North 443 510 41,000  Level Atlanta Center
Thu 02:20:51 PM 32.9531 -82.2836 North 448 516 41,000  Level Atlanta Center
Thu 02:21:51 PM 33.0758 -82.2664 North 448 516 41,000  Level Atlanta Center
Thu 02:22:51 PM 33.2008 -82.2439 North 443 510 41,000  Level Atlanta Center
Thu 02:23:51 PM 33.3236 -82.2239 North 443 510 41,000  Level Atlanta Center
Thu 02:24:51 PM 33.4508 -82.2014 North 443 510 41,000  Level Atlanta Center
Thu 02:25:51 PM 33.5736 -82.1814 North 443 510 41,000  Level Atlanta Center
Thu 02:26:51 PM 33.6983 -82.1586 North 443 510 41,000  Level Atlanta Center
Thu 02:27:51 PM 33.8214 -82.1408 North 443 510 41,000  Level Atlanta Center
Thu 02:28:51 PM 33.9336 -82.1208 North 448 516 41,000  Level Atlanta Center
Thu 02:29:51 PM 34.0522 -82.1006 North 441 507 41,000  Level Atlanta Center
Thu 02:30:51 PM 34.1753 -82.0803 North 441 507 41,000  Level Atlanta Center
Thu 02:31:51 PM 34.2958 -82.0575 North 441 507 41,000  Level Atlanta Center
Thu 02:32:51 PM 34.4208 -82.0369 North 446 513 41,000  Level Atlanta Center
Thu 02:33:51 PM 34.5414 -82.0164 North 441 507 41,000  Level Atlanta Center
Thu 02:34:51 PM 34.6642 -81.9933 North 446 513 41,000  Level Atlanta Center
Thu 02:35:51 PM 34.7892 -81.9725 North 446 513 41,000  Level Atlanta Center
Thu 02:36:51 PM 34.9097 -81.9492 North 441 507 41,000  Level Atlanta Center
Thu 02:37:51 PM 35.0347 -81.9333 North 441 507 41,000  Level Atlanta Center
Thu 02:38:51 PM 35.1575 -81.9250 North 441 507 41,000  Level Atlanta Center
Thu 02:39:51 PM 35.2828 -81.9219 North 441 507 41,000  Level Atlanta Center
Thu 02:40:51 PM 35.4058 -81.9136 North 441 507 41,000  Level Atlanta Center
Thu 02:41:51 PM 35.5286 -81.9106 North 441 507 41,000  Level Atlanta Center
Thu 02:42:51 PM 35.6517 -81.9022 North 441 507 41,000  Level Atlanta Center
Thu 02:43:51 PM 35.7767 -81.8989 North 441 507 41,000  Level Atlanta Center
Thu 02:44:51 PM 35.8975 -81.8906 North 441 507 41,000  Level Atlanta Center
Thu 02:45:51 PM 36.0228 -81.8847 North 441 507 41,000  Level Atlanta Center
Thu 02:46:51 PM 36.1456 -81.8789 North 441 507 41,000 -255 Level Atlanta Center
Thu 02:49:23 PM 36.4517 -81.8617 North 442 509 40,100 -561 Descending Indianapolis Center
Thu 02:50:25 PM 36.5967 -81.8542 North 442 509 39,000 -968 Descending Indianapolis Center
Thu 02:51:27 PM 36.7247 -81.8486 North 453 521 38,100 -1,306 Descending Indianapolis Center
Thu 02:52:29 PM 36.8511 -81.8597 356° North 456 525 36,300 -1,016 Descending Indianapolis Center
Thu 02:53:31 PM 36.9731 -81.8794 353° North 449 517 36,000 -339 Descending Indianapolis Center
Thu 02:54:33 PM 37.0978 -81.9017 352° North 448 516 35,600 -968 Descending Indianapolis Center
Thu 02:55:35 PM 37.2436 -81.9269 352° North 450 518 34,000 -1,113 Descending Indianapolis Center
Thu 02:56:37 PM 37.3711 -81.9375 356° North 457 526 33,300 -774 Descending Indianapolis Center
Thu 02:57:39 PM 37.5003 -81.9497 356° North 461 531 32,400 -919 Descending Indianapolis Center
Thu 02:58:41 PM 37.6300 -81.9636 355° North 464 534 31,400 -677 Descending Indianapolis Center
Thu 02:59:43 PM 37.7583 -81.9761 356° North 464 534 31,000 -192 Descending Indianapolis Center
Thu 03:00:46 PM 37.8831 -81.9881 356° North 462 532 31,000  Level Indianapolis Center
Thu 03:01:48 PM 38.0369 -82.0033 356° North 462 532 31,000 -484 Level Indianapolis Center
Thu 03:02:50 PM 38.1642 -82.0144 356° North 460 529 30,000 -968 Descending Indianapolis Center
Thu 03:03:52 PM 38.2881 -82.0269 355° North 450 518 29,000 -968 Descending Indianapolis Center
Thu 03:04:54 PM 38.4111 -82.0400 355° North 445 512 28,000 -968 Descending Indianapolis Center
Thu 03:05:56 PM 38.5328 -82.0514 356° North 439 505 27,000 -1,016 Descending Indianapolis Center
Thu 03:06:58 PM 38.6514 -82.0639 355° North 427 491 25,900 -1,016 Descending Indianapolis Center
Thu 03:08:00 PM 38.7681 -82.0747 356° North 421 484 24,900 -919 Descending Indianapolis Center
Thu 03:09:02 PM 38.8822 -82.0869 355° North 414 476 24,000 -435 Descending Indianapolis Center
Thu 03:10:04 PM 39.0092 -82.1267 346° North 396 456 24,000 -726 Level Indianapolis Center
Thu 03:11:06 PM 39.1094 -82.1667 343° North 383 441 22,500 -1,872 Descending Indianapolis Center
Thu 03:12:09 PM 39.2072 -82.2053 343° North 372 428 20,100 -2,400 Descending Indianapolis Center
Thu 03:13:11 PM 39.3022 -82.2436 343° North 361 415 17,500 -2,571 Descending Indianapolis Center
Thu 03:13:12 PM 39.3114 -82.2492 335° Northwest 353 406 17,400 -2,625 Descending Indianapolis Center
Thu 03:13:43 PM 39.3597 -82.2700 342° North 350 403 16,100 -2,262 Descending Indianapolis Center
Thu 03:14:13 PM 39.3956 -82.2803 348° North 355 409 15,100 -2,459 Descending Indianapolis Center
Thu 03:14:44 PM 39.4531 -82.3056 341° North 347 399 13,600 -2,613 Descending Indianapolis Center
Thu 03:15:15 PM 39.5033 -82.3206 347° North 351 404 12,400 -2,100 Descending Indianapolis Center
Thu 03:15:44 PM 39.5447 -82.3383 342° North 344 396 11,500 -1,645 Descending Indianapolis Center
Thu 03:16:17 PM 39.5928 -82.3536 346° North 341 392 10,700 -1,180 Descending Indianapolis Center
Thu 03:16:45 PM 39.6300 -82.3700 341° North 309 356 10,300 -1,355 Descending Indianapolis Center
Thu 03:17:19 PM 39.6728 -82.3822 348° North 312 359 9,300 -1,574 Descending Indianapolis Center
Thu 03:17:46 PM 39.7092 -82.3983 341° North 295 339 8,700 -1,645 Descending Indianapolis Center
Thu 03:18:21 PM 39.7503 -82.4108 347° North 296 341 7,600 -2,164 Descending Indianapolis Center
Thu 03:18:47 PM 39.7908 -82.4244 346° North 282 325 6,500 -2,032 Descending Indianapolis Center
Thu 03:19:23 PM 39.8244 -82.4333 349° North 282 325 5,500 -1,377 Descending Indianapolis Center
Thu 03:19:48 PM 39.8594 -82.4567 333° Northwest 251 289 5,100 -484 Descending Indianapolis Center
Thu 03:20:25 PM 39.8833 -82.4764 328° Northwest 252 290 5,000  Descending Indianapolis Center
Thu 03:20:49 PM 39.9092 -82.5078 317° Northwest 220 253 5,100 -97 Climbing Indianapolis Center
Thu 03:21:27 PM 39.9400 -82.5403 321° Northwest 230 265 4,900 -900 Descending Indianapolis Center
Thu 03:21:49 PM 39.9547 -82.5611 313° West 220 253 4,200 -1,810 Descending Indianapolis Center
Thu 03:22:30 PM 39.9739 -82.6017 302° West 226 260 3,000 -1,082 Descending Indianapolis Center
Thu 03:22:50 PM 39.9739 -82.6269 270° West 202 232 3,100  Climbing Indianapolis Center
Thu 03:23:32 PM 39.9817 -82.6694 283° West 206 237 3,000  Descending Indianapolis Center
Thu 03:23:51 PM 39.9817 -82.7019 270° West 201 231 3,100 -97 Climbing Indianapolis Center
Thu 03:24:34 PM 39.9836 -82.7358 274° West 193 222 2,900 -492 Descending Indianapolis Center
Thu 03:24:52 PM 39.9844 -82.7625 272° West 160 184 2,600 -774 Descending Indianapolis Center
Thu 03:25:36 PM 39.9875 -82.7903 278° West 172 198 2,100 -689 Descending Indianapolis Center
Thu 03:25:53 PM 39.9883 -82.8122 273° West 128 147 1,900 -484 Descending Indianapolis Center
Thu 03:26:38 PM 39.9903 -82.8408 275° West 152 175 1,600 -689 Descending Indianapolis Center
Thu 03:26:54 PM 39.9900 -82.8589 269° West 129 148 1,200 -1,500 Descending Indianapolis Center
Thu 03:28:00 PM 39.9833 -82.8833 270° West  Level FlightAware Approximate

Login

Don't have an account? Register now (free) for customized features, flight alerts, and more!